North Tarrytown, New York
Current Conditions -  °F | °C
As of 7:56 PM on Thursday 18 Dec 2014 (Local Time) from KHPN Reporting Station
Broken Clouds Broken Clouds  
Wind Chill: 27°   Ceiling: 3100
Heat Index: 36°   Visibility: 10mi
Dew Point: 26°   Wind: 15mph
Humidity: 67%   Direction: 290°WNW
Pressure: 29.93"   Gusts: 22mph
Location:  41.0851°N, 73.846°W
Report Text: KHPN 190056Z 29013G19KT 10SM BKN031 02/M03 A2993 RMK AO2 SLP142 T00221033
Loading
Personal Weather Stations






























Interactive Weather Map New forecast layout! Learn more

10-Day Weather Forecast

Advertisements
Track Severe Weather on mobile